sensor_id;sensor_type;location;lat;lon;timestamp;temperature;humidity
26757;DHT22;23848;49.798;10.228;2023-04-06T09:45:11;8.70;99.90
26757;DHT22;23848;49.798;10.228;2023-04-06T09:48:06;8.50;99.90
26757;DHT22;23848;49.798;10.228;2023-04-06T09:50:48;8.50;99.90
26757;DHT22;23848;49.798;10.228;2023-04-06T09:53:45;8.60;99.90
26757;DHT22;23848;49.798;10.228;2023-04-06T09:56:30;8.80;99.90
26757;DHT22;23848;49.798;10.228;2023-04-06T09:59:39;9.00;99.90
26757;DHT22;23848;49.798;10.228;2023-04-06T10:02:38;9.30;99.90
26757;DHT22;23848;49.798;10.228;2023-04-06T10:07:54;9.50;99.90
26757;DHT22;23848;49.798;10.228;2023-04-06T10:10:35;9.70;99.90
26757;DHT22;23848;49.798;10.228;2023-04-06T10:13:23;9.90;99.90
26757;DHT22;23848;49.798;10.228;2023-04-06T10:16:23;10.00;99.90
26757;DHT22;23848;49.798;10.228;2023-04-06T10:19:44;10.70;99.90
26757;DHT22;23848;49.798;10.228;2023-04-06T10:22:45;10.70;99.90
26757;DHT22;23848;49.798;10.228;2023-04-06T10:25:38;10.90;99.90
26757;DHT22;23848;49.798;10.228;2023-04-06T10:28:25;10.90;99.90
26757;DHT22;23848;49.798;10.228;2023-04-06T10:31:08;11.00;99.90
26757;DHT22;23848;49.798;10.228;2023-04-06T10:34:00;11.10;99.90
26757;DHT22;23848;49.798;10.228;2023-04-06T10:36:36;11.30;99.90
26757;DHT22;23848;49.798;10.228;2023-04-06T10:39:30;11.40;99.90
26757;DHT22;23848;49.798;10.228;2023-04-06T10:42:38;11.50;99.90
26757;DHT22;23848;49.798;10.228;2023-04-06T10:45:54;11.90;99.90
26757;DHT22;23848;49.798;10.228;2023-04-06T10:48:44;12.00;99.90
26757;DHT22;23848;49.798;10.228;2023-04-06T10:51:42;12.00;99.90
26757;DHT22;23848;49.798;10.228;2023-04-06T10:55:17;12.10;99.90
26757;DHT22;23848;49.798;10.228;2023-04-06T10:58:17;12.20;99.90
26757;DHT22;23848;49.798;10.228;2023-04-06T11:01:41;12.40;99.90
26757;DHT22;23848;49.798;10.228;2023-04-06T11:05:03;12.70;99.90
26757;DHT22;23848;49.798;10.228;2023-04-06T11:08:34;12.80;99.90
26757;DHT22;23848;49.798;10.228;2023-04-06T11:12:15;13.00;99.90
26757;DHT22;23848;49.798;10.228;2023-04-06T11:16:11;13.20;99.90
26757;DHT22;23848;49.798;10.228;2023-04-06T11:19:08;13.20;99.90
26757;DHT22;23848;49.798;10.228;2023-04-06T11:22:15;13.00;99.90
26757;DHT22;23848;49.798;10.228;2023-04-06T11:26:12;13.00;99.90
26757;DHT22;23848;49.798;10.228;2023-04-06T11:29:29;13.00;99.90
26757;DHT22;23848;49.798;10.228;2023-04-06T11:32:48;13.00;99.90
26757;DHT22;23848;49.798;10.228;2023-04-06T11:51:21;13.50;99.70
26757;DHT22;23848;49.798;10.228;2023-04-06T11:56:21;13.40;99.30
26757;DHT22;23848;49.798;10.228;2023-04-06T17:26:59;11.40;98.00
26757;DHT22;23848;49.798;10.228;2023-04-06T17:34:30;10.80;99.20
26757;DHT22;23848;49.798;10.228;2023-04-06T17:51:13;10.00;99.90
